sensor_id;sensor_type;location;lat;lon;timestamp;P1;durP1;ratioP1;P2;durP2;ratioP2
26098;SDS011;13860;52.370;6.764;2022-07-21T00:04:12;17.50;;;9.18;;
26098;SDS011;13860;52.370;6.764;2022-07-21T00:07:17;18.20;;;9.95;;
26098;SDS011;13860;52.370;6.764;2022-07-21T00:10:23;18.48;;;9.88;;
26098;SDS011;13860;52.370;6.764;2022-07-21T00:13:29;18.83;;;10.38;;
26098;SDS011;13860;52.370;6.764;2022-07-21T00:16:35;19.42;;;10.52;;
26098;SDS011;13860;52.370;6.764;2022-07-21T00:19:43;17.73;;;10.63;;
26098;SDS011;13860;52.370;6.764;2022-07-21T00:22:49;18.10;;;10.98;;
26098;SDS011;13860;52.370;6.764;2022-07-21T00:25:54;17.13;;;11.02;;
26098;SDS011;13860;52.370;6.764;2022-07-21T00:28:59;21.45;;;11.43;;
26098;SDS011;13860;52.370;6.764;2022-07-21T00:32:05;14.88;;;10.75;;
26098;SDS011;13860;52.370;6.764;2022-07-21T00:35:13;25.23;;;12.68;;
26098;SDS011;13860;52.370;6.764;2022-07-21T00:38:20;17.35;;;11.82;;
26098;SDS011;13860;52.370;6.764;2022-07-21T00:41:25;21.20;;;11.63;;
26098;SDS011;13860;52.370;6.764;2022-07-21T00:44:31;20.50;;;12.80;;
26098;SDS011;13860;52.370;6.764;2022-07-21T00:47:36;20.20;;;12.45;;
26098;SDS011;13860;52.370;6.764;2022-07-21T00:50:45;17.25;;;12.23;;
26098;SDS011;13860;52.370;6.764;2022-07-21T00:53:50;28.98;;;14.15;;
26098;SDS011;13860;52.370;6.764;2022-07-21T00:56:55;31.48;;;14.10;;
26098;SDS011;13860;52.370;6.764;2022-07-21T01:00:00;23.95;;;13.60;;
26098;SDS011;13860;52.370;6.764;2022-07-21T01:03:07;19.92;;;12.13;;
26098;SDS011;13860;52.370;6.764;2022-07-21T01:06:15;20.23;;;11.63;;
26098;SDS011;13860;52.370;6.764;2022-07-21T01:09:20;23.30;;;13.68;;
26098;SDS011;13860;52.370;6.764;2022-07-21T01:12:26;23.13;;;13.20;;
26098;SDS011;13860;52.370;6.764;2022-07-21T01:15:32;21.08;;;12.77;;
26098;SDS011;13860;52.370;6.764;2022-07-21T01:18:37;21.05;;;12.30;;
26098;SDS011;13860;52.370;6.764;2022-07-21T01:21:46;16.52;;;11.20;;
26098;SDS011;13860;52.370;6.764;2022-07-21T01:24:53;19.85;;;12.32;;
26098;SDS011;13860;52.370;6.764;2022-07-21T01:27:58;17.50;;;10.23;;
26098;SDS011;13860;52.370;6.764;2022-07-21T01:31:03;15.48;;;10.30;;
26098;SDS011;13860;52.370;6.764;2022-07-21T01:34:09;15.13;;;9.48;;
26098;SDS011;13860;52.370;6.764;2022-07-21T01:37:17;22.27;;;10.68;;
26098;SDS011;13860;52.370;6.764;2022-07-21T01:40:25;17.90;;;10.18;;
26098;SDS011;13860;52.370;6.764;2022-07-21T01:43:43;15.05;;;9.43;;
26098;SDS011;13860;52.370;6.764;2022-07-21T01:46:49;14.93;;;8.88;;
26098;SDS011;13860;52.370;6.764;2022-07-21T01:49:56;14.45;;;9.05;;
26098;SDS011;13860;52.370;6.764;2022-07-21T01:53:04;16.73;;;9.80;;
26098;SDS011;13860;52.370;6.764;2022-07-21T01:56:09;13.13;;;9.00;;
26098;SDS011;13860;52.370;6.764;2022-07-21T01:59:14;13.07;;;8.63;;
26098;SDS011;13860;52.370;6.764;2022-07-21T02:02:19;15.27;;;9.80;;
26098;SDS011;13860;52.370;6.764;2022-07-21T02:05:25;13.23;;;9.43;;
26098;SDS011;13860;52.370;6.764;2022-07-21T02:08:32;14.43;;;9.70;;
26098;SDS011;13860;52.370;6.764;2022-07-21T02:11:38;17.15;;;9.65;;
26098;SDS011;13860;52.370;6.764;2022-07-21T02:14:43;13.57;;;10.27;;
26098;SDS011;13860;52.370;6.764;2022-07-21T02:17:48;14.27;;;9.82;;
26098;SDS011;13860;52.370;6.764;2022-07-21T02:20:54;17.85;;;10.75;;
26098;SDS011;13860;52.370;6.764;2022-07-21T02:24:02;14.25;;;9.98;;
26098;SDS011;13860;52.370;6.764;2022-07-21T02:27:08;13.45;;;9.75;;
26098;SDS011;13860;52.370;6.764;2022-07-21T02:30:13;17.23;;;9.55;;
26098;SDS011;13860;52.370;6.764;2022-07-21T02:33:18;13.50;;;9.38;;
26098;SDS011;13860;52.370;6.764;2022-07-21T02:36:24;11.82;;;8.68;;
26098;SDS011;13860;52.370;6.764;2022-07-21T02:39:32;13.52;;;9.23;;
26098;SDS011;13860;52.370;6.764;2022-07-21T02:42:37;11.93;;;8.90;;
26098;SDS011;13860;52.370;6.764;2022-07-21T02:45:42;15.55;;;9.20;;
26098;SDS011;13860;52.370;6.764;2022-07-21T02:48:47;12.85;;;8.45;;
26098;SDS011;13860;52.370;6.764;2022-07-21T02:51:53;13.10;;;8.38;;
26098;SDS011;13860;52.370;6.764;2022-07-21T02:55:01;11.68;;;8.77;;
26098;SDS011;13860;52.370;6.764;2022-07-21T02:58:07;13.45;;;9.52;;
26098;SDS011;13860;52.370;6.764;2022-07-21T03:01:13;15.32;;;10.95;;
26098;SDS011;13860;52.370;6.764;2022-07-21T03:04:20;14.32;;;10.93;;
26098;SDS011;13860;52.370;6.764;2022-07-21T03:07:26;18.15;;;11.20;;
26098;SDS011;13860;52.370;6.764;2022-07-21T03:10:33;18.83;;;11.30;;
26098;SDS011;13860;52.370;6.764;2022-07-21T03:13:38;18.30;;;11.68;;
26098;SDS011;13860;52.370;6.764;2022-07-21T03:16:43;17.40;;;12.77;;
26098;SDS011;13860;52.370;6.764;2022-07-21T03:19:49;16.77;;;12.70;;
26098;SDS011;13860;52.370;6.764;2022-07-21T03:22:54;21.98;;;13.05;;
26098;SDS011;13860;52.370;6.764;2022-07-21T03:26:01;19.98;;;12.90;;
26098;SDS011;13860;52.370;6.764;2022-07-21T03:29:07;21.92;;;14.13;;
26098;SDS011;13860;52.370;6.764;2022-07-21T03:32:12;21.23;;;13.48;;
26098;SDS011;13860;52.370;6.764;2022-07-21T03:35:17;17.83;;;13.32;;
26098;SDS011;13860;52.370;6.764;2022-07-21T03:38:23;19.00;;;13.07;;
26098;SDS011;13860;52.370;6.764;2022-07-21T03:41:31;21.40;;;13.27;;
26098;SDS011;13860;52.370;6.764;2022-07-21T03:44:36;17.08;;;13.25;;
26098;SDS011;13860;52.370;6.764;2022-07-21T03:47:42;19.40;;;13.05;;
26098;SDS011;13860;52.370;6.764;2022-07-21T03:50:47;20.35;;;14.43;;
26098;SDS011;13860;52.370;6.764;2022-07-21T03:53:52;20.98;;;14.43;;
26098;SDS011;13860;52.370;6.764;2022-07-21T03:57:00;18.85;;;13.18;;
26098;SDS011;13860;52.370;6.764;2022-07-21T04:00:06;21.27;;;13.98;;
26098;SDS011;13860;52.370;6.764;2022-07-21T04:03:13;21.30;;;13.52;;
26098;SDS011;13860;52.370;6.764;2022-07-21T04:06:18;19.15;;;12.73;;
26098;SDS011;13860;52.370;6.764;2022-07-21T04:09:23;18.58;;;12.48;;
26098;SDS011;13860;52.370;6.764;2022-07-21T04:12:31;17.23;;;11.95;;
26098;SDS011;13860;52.370;6.764;2022-07-21T04:15:36;14.40;;;10.57;;
26098;SDS011;13860;52.370;6.764;2022-07-21T04:18:42;14.02;;;10.05;;
26098;SDS011;13860;52.370;6.764;2022-07-21T04:21:46;14.32;;;9.73;;
26098;SDS011;13860;52.370;6.764;2022-07-21T04:24:52;16.75;;;10.68;;
26098;SDS011;13860;52.370;6.764;2022-07-21T04:27:59;13.00;;;9.65;;
26098;SDS011;13860;52.370;6.764;2022-07-21T04:31:04;16.08;;;10.68;;
26098;SDS011;13860;52.370;6.764;2022-07-21T04:34:10;19.73;;;10.95;;
26098;SDS011;13860;52.370;6.764;2022-07-21T04:37:15;16.30;;;11.30;;
26098;SDS011;13860;52.370;6.764;2022-07-21T04:40:20;16.90;;;12.02;;
26098;SDS011;13860;52.370;6.764;2022-07-21T04:43:28;17.83;;;12.82;;
26098;SDS011;13860;52.370;6.764;2022-07-21T04:46:33;20.20;;;12.88;;
26098;SDS011;13860;52.370;6.764;2022-07-21T04:49:38;19.50;;;14.18;;
26098;SDS011;13860;52.370;6.764;2022-07-21T04:52:44;20.05;;;13.35;;
26098;SDS011;13860;52.370;6.764;2022-07-21T04:55:49;18.17;;;13.82;;
26098;SDS011;13860;52.370;6.764;2022-07-21T04:58:57;21.45;;;14.25;;
26098;SDS011;13860;52.370;6.764;2022-07-21T05:02:03;19.27;;;14.57;;
26098;SDS011;13860;52.370;6.764;2022-07-21T05:05:09;19.25;;;14.30;;
26098;SDS011;13860;52.370;6.764;2022-07-21T05:08:15;22.70;;;15.65;;
26098;SDS011;13860;52.370;6.764;2022-07-21T05:11:20;20.20;;;14.20;;
26098;SDS011;13860;52.370;6.764;2022-07-21T05:14:28;25.92;;;15.60;;
26098;SDS011;13860;52.370;6.764;2022-07-21T05:17:33;23.02;;;16.60;;
26098;SDS011;13860;52.370;6.764;2022-07-21T05:20:39;23.80;;;16.58;;
26098;SDS011;13860;52.370;6.764;2022-07-21T05:23:44;26.48;;;17.85;;
26098;SDS011;13860;52.370;6.764;2022-07-21T05:26:49;23.27;;;17.02;;
26098;SDS011;13860;52.370;6.764;2022-07-21T05:29:57;28.88;;;18.77;;
26098;SDS011;13860;52.370;6.764;2022-07-21T05:33:02;32.03;;;20.52;;
26098;SDS011;13860;52.370;6.764;2022-07-21T05:36:07;31.27;;;20.05;;
26098;SDS011;13860;52.370;6.764;2022-07-21T05:39:12;27.65;;;19.35;;
26098;SDS011;13860;52.370;6.764;2022-07-21T05:42:18;27.75;;;19.90;;
26098;SDS011;13860;52.370;6.764;2022-07-21T05:45:25;29.45;;;20.50;;
26098;SDS011;13860;52.370;6.764;2022-07-21T05:48:30;29.83;;;20.50;;
26098;SDS011;13860;52.370;6.764;2022-07-21T05:51:35;30.27;;;21.67;;
26098;SDS011;13860;52.370;6.764;2022-07-21T05:54:40;29.27;;;22.08;;
26098;SDS011;13860;52.370;6.764;2022-07-21T05:57:45;31.42;;;23.27;;
26098;SDS011;13860;52.370;6.764;2022-07-21T06:00:53;38.50;;;22.98;;
26098;SDS011;13860;52.370;6.764;2022-07-21T06:04:15;32.00;;;22.77;;
26098;SDS011;13860;52.370;6.764;2022-07-21T06:07:21;29.63;;;21.88;;
26098;SDS011;13860;52.370;6.764;2022-07-21T06:10:26;28.98;;;22.13;;
26098;SDS011;13860;52.370;6.764;2022-07-21T06:13:31;30.42;;;22.58;;
26098;SDS011;13860;52.370;6.764;2022-07-21T06:16:39;31.52;;;22.83;;
26098;SDS011;13860;52.370;6.764;2022-07-21T06:19:44;32.45;;;22.33;;
26098;SDS011;13860;52.370;6.764;2022-07-21T06:22:49;30.48;;;21.38;;
26098;SDS011;13860;52.370;6.764;2022-07-21T06:25:54;31.13;;;22.42;;
26098;SDS011;13860;52.370;6.764;2022-07-21T06:28:59;30.85;;;22.88;;
26098;SDS011;13860;52.370;6.764;2022-07-21T06:32:07;32.63;;;21.35;;
26098;SDS011;13860;52.370;6.764;2022-07-21T06:35:19;33.30;;;21.88;;
26098;SDS011;13860;52.370;6.764;2022-07-21T06:38:25;32.70;;;20.80;;
26098;SDS011;13860;52.370;6.764;2022-07-21T06:41:30;32.17;;;20.98;;
26098;SDS011;13860;52.370;6.764;2022-07-21T06:44:41;30.70;;;20.85;;
26098;SDS011;13860;52.370;6.764;2022-07-21T06:48:01;31.23;;;20.80;;
26098;SDS011;13860;52.370;6.764;2022-07-21T06:51:08;30.88;;;20.88;;
26098;SDS011;13860;52.370;6.764;2022-07-21T06:54:13;29.70;;;22.02;;
26098;SDS011;13860;52.370;6.764;2022-07-21T06:57:18;30.45;;;20.67;;
26098;SDS011;13860;52.370;6.764;2022-07-21T07:00:23;34.55;;;21.58;;
26098;SDS011;13860;52.370;6.764;2022-07-21T07:03:30;29.40;;;20.02;;
26098;SDS011;13860;52.370;6.764;2022-07-21T07:06:36;31.10;;;20.90;;
26098;SDS011;13860;52.370;6.764;2022-07-21T07:09:41;29.98;;;21.55;;
26098;SDS011;13860;52.370;6.764;2022-07-21T07:12:46;27.52;;;20.70;;
26098;SDS011;13860;52.370;6.764;2022-07-21T07:16:11;24.60;;;17.90;;
26098;SDS011;13860;52.370;6.764;2022-07-21T07:19:19;29.77;;;18.52;;
26098;SDS011;13860;52.370;6.764;2022-07-21T07:22:24;26.17;;;18.02;;
26098;SDS011;13860;52.370;6.764;2022-07-21T07:25:29;26.27;;;18.75;;
26098;SDS011;13860;52.370;6.764;2022-07-21T07:28:34;24.75;;;18.58;;
26098;SDS011;13860;52.370;6.764;2022-07-21T07:31:39;23.23;;;17.25;;
26098;SDS011;13860;52.370;6.764;2022-07-21T07:34:47;26.45;;;18.27;;
26098;SDS011;13860;52.370;6.764;2022-07-21T07:37:52;24.30;;;16.58;;
26098;SDS011;13860;52.370;6.764;2022-07-21T07:40:58;22.98;;;16.42;;
26098;SDS011;13860;52.370;6.764;2022-07-21T07:44:03;26.75;;;17.25;;
26098;SDS011;13860;52.370;6.764;2022-07-21T07:47:08;28.08;;;17.10;;
26098;SDS011;13860;52.370;6.764;2022-07-21T07:50:16;21.83;;;16.08;;
26098;SDS011;13860;52.370;6.764;2022-07-21T07:53:21;23.85;;;17.15;;
26098;SDS011;13860;52.370;6.764;2022-07-21T07:56:26;24.67;;;17.63;;
26098;SDS011;13860;52.370;6.764;2022-07-21T07:59:32;25.13;;;17.02;;
26098;SDS011;13860;52.370;6.764;2022-07-21T08:02:37;25.42;;;17.88;;
26098;SDS011;13860;52.370;6.764;2022-07-21T08:05:45;25.40;;;17.75;;
26098;SDS011;13860;52.370;6.764;2022-07-21T08:08:50;23.58;;;17.13;;
26098;SDS011;13860;52.370;6.764;2022-07-21T08:11:56;27.50;;;17.23;;
26098;SDS011;13860;52.370;6.764;2022-07-21T08:15:01;28.40;;;18.85;;
26098;SDS011;13860;52.370;6.764;2022-07-21T08:18:06;30.95;;;19.15;;
26098;SDS011;13860;52.370;6.764;2022-07-21T08:21:14;34.72;;;19.73;;
26098;SDS011;13860;52.370;6.764;2022-07-21T08:24:19;31.10;;;20.52;;
26098;SDS011;13860;52.370;6.764;2022-07-21T08:27:24;31.67;;;20.60;;
26098;SDS011;13860;52.370;6.764;2022-07-21T08:30:29;32.67;;;20.05;;
26098;SDS011;13860;52.370;6.764;2022-07-21T08:33:35;32.78;;;21.75;;
26098;SDS011;13860;52.370;6.764;2022-07-21T08:36:42;36.97;;;21.80;;
26098;SDS011;13860;52.370;6.764;2022-07-21T08:39:48;35.75;;;22.60;;
26098;SDS011;13860;52.370;6.764;2022-07-21T08:42:53;46.15;;;23.00;;
26098;SDS011;13860;52.370;6.764;2022-07-21T08:45:59;37.05;;;23.25;;
26098;SDS011;13860;52.370;6.764;2022-07-21T08:49:04;36.53;;;22.55;;
26098;SDS011;13860;52.370;6.764;2022-07-21T08:52:13;33.20;;;22.10;;
26098;SDS011;13860;52.370;6.764;2022-07-21T08:55:19;35.10;;;21.90;;
26098;SDS011;13860;52.370;6.764;2022-07-21T08:58:25;40.63;;;24.25;;
26098;SDS011;13860;52.370;6.764;2022-07-21T09:01:30;47.60;;;23.70;;
26098;SDS011;13860;52.370;6.764;2022-07-21T09:04:36;39.30;;;23.77;;
26098;SDS011;13860;52.370;6.764;2022-07-21T09:07:52;35.95;;;23.98;;
26098;SDS011;13860;52.370;6.764;2022-07-21T09:11:12;40.75;;;23.85;;
26098;SDS011;13860;52.370;6.764;2022-07-21T09:14:25;39.15;;;25.02;;
26098;SDS011;13860;52.370;6.764;2022-07-21T09:17:33;39.30;;;24.33;;
26098;SDS011;13860;52.370;6.764;2022-07-21T09:20:58;39.50;;;26.25;;
26098;SDS011;13860;52.370;6.764;2022-07-21T09:24:20;37.35;;;24.15;;
26098;SDS011;13860;52.370;6.764;2022-07-21T09:27:30;39.78;;;25.58;;
26098;SDS011;13860;52.370;6.764;2022-07-21T09:30:46;43.30;;;26.23;;
26098;SDS011;13860;52.370;6.764;2022-07-21T09:33:56;38.22;;;25.23;;
26098;SDS011;13860;52.370;6.764;2022-07-21T09:37:04;37.70;;;25.63;;
26098;SDS011;13860;52.370;6.764;2022-07-21T09:40:13;35.60;;;25.10;;
26098;SDS011;13860;52.370;6.764;2022-07-21T09:43:33;35.58;;;24.65;;
26098;SDS011;13860;52.370;6.764;2022-07-21T09:46:43;43.08;;;25.92;;
26098;SDS011;13860;52.370;6.764;2022-07-21T09:49:48;37.00;;;25.25;;
26098;SDS011;13860;52.370;6.764;2022-07-21T09:53:13;34.78;;;23.45;;
26098;SDS011;13860;52.370;6.764;2022-07-21T09:56:21;30.55;;;20.27;;
26098;SDS011;13860;52.370;6.764;2022-07-21T09:59:27;28.17;;;18.63;;
26098;SDS011;13860;52.370;6.764;2022-07-21T10:02:53;27.67;;;18.27;;
26098;SDS011;13860;52.370;6.764;2022-07-21T10:05:58;24.33;;;17.15;;
26098;SDS011;13860;52.370;6.764;2022-07-21T10:09:04;28.83;;;18.75;;
26098;SDS011;13860;52.370;6.764;2022-07-21T10:12:16;24.02;;;17.45;;
26098;SDS011;13860;52.370;6.764;2022-07-21T10:15:21;22.00;;;16.88;;
26098;SDS011;13860;52.370;6.764;2022-07-21T10:18:27;34.90;;;18.17;;
26098;SDS011;13860;52.370;6.764;2022-07-21T10:21:39;25.55;;;15.75;;
26098;SDS011;13860;52.370;6.764;2022-07-21T10:24:48;22.63;;;15.25;;
26098;SDS011;13860;52.370;6.764;2022-07-21T10:31:23;21.88;;;15.13;;
26098;SDS011;13860;52.370;6.764;2022-07-21T10:34:34;29.05;;;14.82;;
26098;SDS011;13860;52.370;6.764;2022-07-21T10:37:44;19.77;;;14.63;;
26098;SDS011;13860;52.370;6.764;2022-07-21T10:40:50;21.60;;;13.23;;
26098;SDS011;13860;52.370;6.764;2022-07-21T10:44:05;21.98;;;12.82;;
26098;SDS011;13860;52.370;6.764;2022-07-21T10:47:42;18.00;;;12.77;;
26098;SDS011;13860;52.370;6.764;2022-07-21T10:50:48;22.10;;;12.75;;
26098;SDS011;13860;52.370;6.764;2022-07-21T10:57:25;18.15;;;11.32;;
26098;SDS011;13860;52.370;6.764;2022-07-21T11:00:35;19.25;;;11.35;;
26098;SDS011;13860;52.370;6.764;2022-07-21T11:03:41;16.30;;;11.30;;
26098;SDS011;13860;52.370;6.764;2022-07-21T11:06:48;22.45;;;11.45;;
26098;SDS011;13860;52.370;6.764;2022-07-21T11:13:19;22.67;;;12.07;;
26098;SDS011;13860;52.370;6.764;2022-07-21T11:20:14;20.03;;;11.37;;
26098;SDS011;13860;52.370;6.764;2022-07-21T11:23:19;18.42;;;11.70;;
26098;SDS011;13860;52.370;6.764;2022-07-21T11:26:25;23.33;;;13.00;;
26098;SDS011;13860;52.370;6.764;2022-07-21T11:29:30;20.35;;;12.05;;
26098;SDS011;13860;52.370;6.764;2022-07-21T11:32:37;19.98;;;11.05;;
26098;SDS011;13860;52.370;6.764;2022-07-21T11:35:45;19.77;;;10.55;;
26098;SDS011;13860;52.370;6.764;2022-07-21T11:38:57;18.98;;;11.18;;
26098;SDS011;13860;52.370;6.764;2022-07-21T11:42:08;21.50;;;12.23;;
26098;SDS011;13860;52.370;6.764;2022-07-21T11:45:15;17.30;;;11.68;;
26098;SDS011;13860;52.370;6.764;2022-07-21T11:48:29;19.55;;;11.23;;
26098;SDS011;13860;52.370;6.764;2022-07-21T11:51:37;19.30;;;11.73;;
26098;SDS011;13860;52.370;6.764;2022-07-21T11:54:52;17.00;;;8.90;;
26098;SDS011;13860;52.370;6.764;2022-07-21T11:57:57;13.23;;;8.52;;
26098;SDS011;13860;52.370;6.764;2022-07-21T12:01:06;14.07;;;9.48;;
26098;SDS011;13860;52.370;6.764;2022-07-21T12:04:13;16.35;;;8.73;;
26098;SDS011;13860;52.370;6.764;2022-07-21T12:07:24;13.35;;;9.32;;
26098;SDS011;13860;52.370;6.764;2022-07-21T12:10:30;13.77;;;8.95;;
26098;SDS011;13860;52.370;6.764;2022-07-21T12:16:56;9.07;;;6.65;;
26098;SDS011;13860;52.370;6.764;2022-07-21T12:20:02;6.50;;;4.38;;
26098;SDS011;13860;52.370;6.764;2022-07-21T12:23:20;3.55;;;2.38;;
26098;SDS011;13860;52.370;6.764;2022-07-21T12:26:26;2.55;;;2.00;;
26098;SDS011;13860;52.370;6.764;2022-07-21T12:29:31;4.00;;;2.20;;
26098;SDS011;13860;52.370;6.764;2022-07-21T12:32:42;2.65;;;2.08;;
26098;SDS011;13860;52.370;6.764;2022-07-21T12:35:57;2.40;;;2.03;;
26098;SDS011;13860;52.370;6.764;2022-07-21T12:42:41;6.53;;;1.83;;
26098;SDS011;13860;52.370;6.764;2022-07-21T12:45:47;2.58;;;2.03;;
26098;SDS011;13860;52.370;6.764;2022-07-21T12:49:02;2.63;;;2.15;;
26098;SDS011;13860;52.370;6.764;2022-07-21T12:52:13;2.75;;;2.50;;
26098;SDS011;13860;52.370;6.764;2022-07-21T12:55:21;2.80;;;2.33;;
26098;SDS011;13860;52.370;6.764;2022-07-21T12:58:26;3.42;;;2.60;;
26098;SDS011;13860;52.370;6.764;2022-07-21T13:01:32;2.95;;;2.65;;
26098;SDS011;13860;52.370;6.764;2022-07-21T13:04:38;3.65;;;2.78;;
26098;SDS011;13860;52.370;6.764;2022-07-21T13:07:43;3.97;;;3.10;;
26098;SDS011;13860;52.370;6.764;2022-07-21T13:10:51;3.58;;;2.97;;
26098;SDS011;13860;52.370;6.764;2022-07-21T13:13:59;3.78;;;3.10;;
26098;SDS011;13860;52.370;6.764;2022-07-21T13:17:05;3.55;;;3.00;;
26098;SDS011;13860;52.370;6.764;2022-07-21T13:20:11;5.57;;;2.72;;
26098;SDS011;13860;52.370;6.764;2022-07-21T13:23:17;4.53;;;3.47;;
26098;SDS011;13860;52.370;6.764;2022-07-21T13:26:26;3.97;;;3.53;;
26098;SDS011;13860;52.370;6.764;2022-07-21T13:29:31;4.53;;;3.33;;
26098;SDS011;13860;52.370;6.764;2022-07-21T13:32:38;5.07;;;3.55;;
26098;SDS011;13860;52.370;6.764;2022-07-21T13:35:43;4.35;;;3.03;;
26098;SDS011;13860;52.370;6.764;2022-07-21T13:38:49;5.47;;;3.67;;
26098;SDS011;13860;52.370;6.764;2022-07-21T13:42:16;4.47;;;3.38;;
26098;SDS011;13860;52.370;6.764;2022-07-21T13:45:41;5.80;;;3.67;;
26098;SDS011;13860;52.370;6.764;2022-07-21T13:48:46;4.25;;;3.50;;
26098;SDS011;13860;52.370;6.764;2022-07-21T13:51:52;6.30;;;3.60;;
26098;SDS011;13860;52.370;6.764;2022-07-21T13:54:58;5.60;;;4.03;;
26098;SDS011;13860;52.370;6.764;2022-07-21T13:58:06;7.22;;;3.63;;
26098;SDS011;13860;52.370;6.764;2022-07-21T14:01:12;5.97;;;3.70;;
26098;SDS011;13860;52.370;6.764;2022-07-21T14:04:17;5.05;;;3.15;;
26098;SDS011;13860;52.370;6.764;2022-07-21T14:07:24;4.07;;;2.60;;
26098;SDS011;13860;52.370;6.764;2022-07-21T14:10:29;5.03;;;3.03;;
26098;SDS011;13860;52.370;6.764;2022-07-21T14:13:37;3.72;;;2.90;;
26098;SDS011;13860;52.370;6.764;2022-07-21T14:16:45;4.43;;;3.15;;
26098;SDS011;13860;52.370;6.764;2022-07-21T14:19:51;4.82;;;3.40;;
26098;SDS011;13860;52.370;6.764;2022-07-21T14:22:56;4.93;;;3.38;;
26098;SDS011;13860;52.370;6.764;2022-07-21T14:26:01;5.85;;;3.55;;
26098;SDS011;13860;52.370;6.764;2022-07-21T14:29:09;5.45;;;3.50;;
26098;SDS011;13860;52.370;6.764;2022-07-21T14:32:14;5.35;;;3.85;;
26098;SDS011;13860;52.370;6.764;2022-07-21T14:35:24;4.32;;;3.75;;
26098;SDS011;13860;52.370;6.764;2022-07-21T14:38:30;4.95;;;3.60;;
26098;SDS011;13860;52.370;6.764;2022-07-21T14:41:35;4.57;;;3.72;;
26098;SDS011;13860;52.370;6.764;2022-07-21T14:44:43;5.50;;;3.03;;
26098;SDS011;13860;52.370;6.764;2022-07-21T14:47:49;7.00;;;3.40;;
26098;SDS011;13860;52.370;6.764;2022-07-21T14:50:54;3.45;;;2.70;;
26098;SDS011;13860;52.370;6.764;2022-07-21T14:53:59;6.03;;;3.30;;
26098;SDS011;13860;52.370;6.764;2022-07-21T14:57:04;7.78;;;3.60;;
26098;SDS011;13860;52.370;6.764;2022-07-21T15:00:14;5.35;;;3.55;;
26098;SDS011;13860;52.370;6.764;2022-07-21T15:03:20;5.53;;;3.17;;
26098;SDS011;13860;52.370;6.764;2022-07-21T15:06:25;6.35;;;3.85;;
26098;SDS011;13860;52.370;6.764;2022-07-21T15:09:30;4.95;;;3.10;;
26098;SDS011;13860;52.370;6.764;2022-07-21T15:12:35;5.20;;;3.10;;
26098;SDS011;13860;52.370;6.764;2022-07-21T15:15:43;4.65;;;2.85;;
26098;SDS011;13860;52.370;6.764;2022-07-21T15:18:48;3.78;;;2.60;;
26098;SDS011;13860;52.370;6.764;2022-07-21T15:21:54;5.28;;;2.88;;
26098;SDS011;13860;52.370;6.764;2022-07-21T15:24:59;4.82;;;2.90;;
26098;SDS011;13860;52.370;6.764;2022-07-21T15:28:11;4.78;;;3.30;;
26098;SDS011;13860;52.370;6.764;2022-07-21T15:31:18;5.63;;;3.20;;
26098;SDS011;13860;52.370;6.764;2022-07-21T15:34:24;6.07;;;3.28;;
26098;SDS011;13860;52.370;6.764;2022-07-21T15:37:29;4.38;;;3.70;;
26098;SDS011;13860;52.370;6.764;2022-07-21T15:40:34;6.45;;;4.20;;
26098;SDS011;13860;52.370;6.764;2022-07-21T15:43:40;7.78;;;4.93;;
26098;SDS011;13860;52.370;6.764;2022-07-21T15:46:47;6.18;;;3.85;;
26098;SDS011;13860;52.370;6.764;2022-07-21T15:49:53;7.90;;;4.95;;
26098;SDS011;13860;52.370;6.764;2022-07-21T15:52:58;6.63;;;4.30;;
26098;SDS011;13860;52.370;6.764;2022-07-21T15:56:03;7.82;;;4.93;;
26098;SDS011;13860;52.370;6.764;2022-07-21T15:59:10;7.55;;;5.03;;
26098;SDS011;13860;52.370;6.764;2022-07-21T16:02:30;5.28;;;4.63;;
26098;SDS011;13860;52.370;6.764;2022-07-21T16:05:35;10.95;;;4.55;;
26098;SDS011;13860;52.370;6.764;2022-07-21T16:08:40;10.73;;;5.43;;
26098;SDS011;13860;52.370;6.764;2022-07-21T16:11:45;7.07;;;5.28;;
26098;SDS011;13860;52.370;6.764;2022-07-21T16:14:50;7.28;;;5.40;;
26098;SDS011;13860;52.370;6.764;2022-07-21T16:17:58;9.02;;;6.70;;
26098;SDS011;13860;52.370;6.764;2022-07-21T16:21:04;7.35;;;4.70;;
26098;SDS011;13860;52.370;6.764;2022-07-21T16:24:10;7.65;;;4.55;;
26098;SDS011;13860;52.370;6.764;2022-07-21T16:27:15;7.15;;;4.70;;
26098;SDS011;13860;52.370;6.764;2022-07-21T16:30:21;7.13;;;4.47;;
26098;SDS011;13860;52.370;6.764;2022-07-21T16:33:29;6.93;;;4.75;;
26098;SDS011;13860;52.370;6.764;2022-07-21T16:36:34;6.88;;;4.30;;
26098;SDS011;13860;52.370;6.764;2022-07-21T16:39:39;6.18;;;4.40;;
26098;SDS011;13860;52.370;6.764;2022-07-21T16:42:45;6.32;;;4.57;;
26098;SDS011;13860;52.370;6.764;2022-07-21T16:45:50;4.75;;;4.18;;
26098;SDS011;13860;52.370;6.764;2022-07-21T16:48:58;4.57;;;3.42;;
26098;SDS011;13860;52.370;6.764;2022-07-21T16:52:04;5.28;;;3.38;;
26098;SDS011;13860;52.370;6.764;2022-07-21T16:55:09;5.95;;;3.40;;
26098;SDS011;13860;52.370;6.764;2022-07-21T16:58:14;3.83;;;2.70;;
26098;SDS011;13860;52.370;6.764;2022-07-21T17:01:19;6.00;;;2.60;;
26098;SDS011;13860;52.370;6.764;2022-07-21T17:04:28;8.40;;;2.88;;
26098;SDS011;13860;52.370;6.764;2022-07-21T17:07:33;4.53;;;2.72;;
26098;SDS011;13860;52.370;6.764;2022-07-21T17:10:39;7.03;;;2.63;;
26098;SDS011;13860;52.370;6.764;2022-07-21T17:13:44;3.13;;;2.50;;
26098;SDS011;13860;52.370;6.764;2022-07-21T17:16:49;2.97;;;2.10;;
26098;SDS011;13860;52.370;6.764;2022-07-21T17:19:57;3.95;;;2.42;;
26098;SDS011;13860;52.370;6.764;2022-07-21T17:23:02;2.60;;;2.05;;
26098;SDS011;13860;52.370;6.764;2022-07-21T17:26:08;4.53;;;2.45;;
26098;SDS011;13860;52.370;6.764;2022-07-21T17:29:13;3.50;;;2.50;;
26098;SDS011;13860;52.370;6.764;2022-07-21T17:32:19;3.83;;;2.83;;
26098;SDS011;13860;52.370;6.764;2022-07-21T17:35:27;4.63;;;2.83;;
26098;SDS011;13860;52.370;6.764;2022-07-21T17:38:32;5.80;;;2.60;;
26098;SDS011;13860;52.370;6.764;2022-07-21T17:41:37;4.80;;;2.67;;
26098;SDS011;13860;52.370;6.764;2022-07-21T17:44:42;3.28;;;2.88;;
26098;SDS011;13860;52.370;6.764;2022-07-21T17:47:47;3.03;;;2.45;;
26098;SDS011;13860;52.370;6.764;2022-07-21T17:50:55;5.47;;;3.38;;
26098;SDS011;13860;52.370;6.764;2022-07-21T17:54:01;7.20;;;3.60;;
26098;SDS011;13860;52.370;6.764;2022-07-21T17:57:06;3.88;;;3.22;;
26098;SDS011;13860;52.370;6.764;2022-07-21T18:00:24;4.18;;;3.17;;
26098;SDS011;13860;52.370;6.764;2022-07-21T18:03:30;4.75;;;3.53;;
26098;SDS011;13860;52.370;6.764;2022-07-21T18:06:37;4.60;;;3.05;;
26098;SDS011;13860;52.370;6.764;2022-07-21T18:09:43;4.70;;;2.95;;
26098;SDS011;13860;52.370;6.764;2022-07-21T18:12:48;4.57;;;3.90;;
26098;SDS011;13860;52.370;6.764;2022-07-21T18:15:56;6.22;;;4.53;;
26098;SDS011;13860;52.370;6.764;2022-07-21T18:19:02;7.70;;;3.90;;
26098;SDS011;13860;52.370;6.764;2022-07-21T18:22:13;6.63;;;3.60;;
26098;SDS011;13860;52.370;6.764;2022-07-21T18:25:18;5.18;;;3.65;;
26098;SDS011;13860;52.370;6.764;2022-07-21T18:28:23;7.55;;;3.90;;
26098;SDS011;13860;52.370;6.764;2022-07-21T18:31:30;4.30;;;3.30;;
26098;SDS011;13860;52.370;6.764;2022-07-21T18:34:36;5.45;;;3.75;;
26098;SDS011;13860;52.370;6.764;2022-07-21T18:37:44;5.30;;;4.15;;
26098;SDS011;13860;52.370;6.764;2022-07-21T18:40:49;9.90;;;4.05;;
26098;SDS011;13860;52.370;6.764;2022-07-21T18:43:54;5.50;;;4.30;;
26098;SDS011;13860;52.370;6.764;2022-07-21T18:46:59;7.32;;;4.53;;
26098;SDS011;13860;52.370;6.764;2022-07-21T18:50:05;5.07;;;4.53;;